Time;durP1;ratioP1;P1;durP2;ratioP2;P2;SDS_P1;SDS_P2;PMS_P1;PMS_P2;Temp;Humidity;BMP_temperature;BMP_pressure;BME280_temperature;BME280_humidity;BME280_pressure;Samples;Min_cycle;Max_cycle;Signal;HPM_P1;HPM_P2
2023/12/27 00:01:04;;;;;;;151.98;82.13;;;5.50;99.90;;;;;;5068257;28;20052;-78
2023/12/27 00:03:31;;;;;;;160.80;89.03;;;5.50;13.90;;;;;;5053293;28;20102;-77
2023/12/27 00:05:59;;;;;;;142.45;80.20;;;5.40;1.00;;;;;;5051801;28;20045;-79
2023/12/27 00:08:26;;;;;;;134.57;74.72;;;5.40;1.00;;;;;;5053579;28;20574;-77
2023/12/27 00:10:54;;;;;;;146.48;84.45;;;5.40;1.00;;;;;;5053202;28;20053;-75
2023/12/27 00:13:22;;;;;;;160.85;88.18;;;5.40;1.00;;;;;;5055677;28;20041;-76
2023/12/27 00:15:49;;;;;;;148.18;85.40;;;5.40;1.00;;;;;;5067401;28;20116;-77
2023/12/27 00:18:18;;;;;;;162.10;96.10;;;5.40;1.00;;;;;;5068224;28;20047;-79
2023/12/27 00:20:47;;;;;;;168.85;99.15;;;5.30;1.00;;;;;;5057405;28;20102;-75
2023/12/27 00:23:15;;;;;;;166.30;99.90;;;5.10;1.00;;;;;;5056622;28;20040;-78
2023/12/27 00:25:43;;;;;;;142.35;85.85;;;5.10;1.00;;;;;;5058061;28;20049;-75
2023/12/27 00:28:10;;;;;;;152.25;91.13;;;5.10;1.00;;;;;;5069587;28;20037;-77
2023/12/27 00:30:38;;;;;;;157.40;92.10;;;5.10;1.00;;;;;;5059336;28;20029;-75
2023/12/27 00:33:05;;;;;;;158.65;92.32;;;5.10;1.00;;;;;;5050135;28;20056;-78
2023/12/27 00:35:34;;;;;;;148.02;89.43;;;5.10;1.00;;;;;;5051941;28;20044;-76
2023/12/27 00:38:02;;;;;;;133.27;78.75;;;5.00;1.00;;;;;;5052343;28;20041;-78
2023/12/27 00:40:29;;;;;;;130.75;76.78;;;5.10;1.00;;;;;;5050945;28;20069;-77
2023/12/27 00:42:57;;;;;;;133.88;80.60;;;5.00;1.00;;;;;;5051291;28;20041;-75
2023/12/27 00:45:24;;;;;;;129.85;76.95;;;5.00;1.00;;;;;;5058286;28;20064;-75
2023/12/27 00:47:52;;;;;;;138.07;80.60;;;4.90;1.00;;;;;;5050838;28;20282;-78
2023/12/27 00:50:21;;;;;;;139.45;87.07;;;4.90;1.00;;;;;;5065375;28;20044;-77
2023/12/27 00:52:50;;;;;;;152.45;90.38;;;4.80;1.00;;;;;;5070923;28;20134;-76
2023/12/27 00:55:18;;;;;;;154.40;94.18;;;4.80;55.30;;;;;;5050464;28;20099;-79
2023/12/27 00:57:45;;;;;;;161.25;97.38;;;4.80;76.10;;;;;;5050562;28;20078;-78
2023/12/27 01:00:18;;;;;;;152.50;85.30;;;4.80;78.30;;;;;;5055728;28;20076;-78
2023/12/27 01:02:45;;;;;;;130.68;72.88;;;4.80;55.30;;;;;;5050163;28;20049;-78
2023/12/27 01:05:13;;;;;;;134.65;79.35;;;4.80;99.90;;;;;;5048703;28;20060;-77
2023/12/27 01:07:40;;;;;;;134.27;78.95;;;4.80;99.90;;;;;;5050324;28;20089;-76
2023/12/27 01:10:14;;;;;;;141.23;82.55;;;4.70;99.90;;;;;;5040459;28;20055;-76
2023/12/27 01:12:41;;;;;;;119.07;73.13;;;4.80;96.30;;;;;;5017247;28;20328;-75
2023/12/27 01:15:10;;;;;;;118.38;67.75;;;4.70;20.80;;;;;;5050599;28;20033;-76
2023/12/27 01:17:38;;;;;;;111.93;65.43;;;4.70;1.00;;;;;;5065498;28;20648;-77
2023/12/27 01:20:07;;;;;;;104.45;63.50;;;4.70;1.00;;;;;;5064222;28;20112;-78
2023/12/27 01:22:34;;;;;;;94.70;52.45;;;4.60;1.00;;;;;;5072280;28;20053;-78
2023/12/27 01:25:02;;;;;;;86.18;54.10;;;4.40;16.00;;;;;;5045399;28;20049;-78
2023/12/27 01:27:31;;;;;;;91.10;51.92;;;4.30;99.90;;;;;;5067967;28;20068;-74
2023/12/27 01:29:58;;;;;;;94.80;54.72;;;4.30;99.90;;;;;;5051891;28;20112;-79
2023/12/27 01:32:26;;;;;;;109.47;62.95;;;4.40;99.90;;;;;;5049823;28;20106;-78
2023/12/27 01:34:53;;;;;;;115.65;68.13;;;4.40;99.90;;;;;;5026464;28;20060;-77
2023/12/27 01:37:21;;;;;;;118.80;67.82;;;4.40;99.90;;;;;;5055308;28;20400;-75
2023/12/27 01:39:48;;;;;;;105.20;62.08;;;4.40;99.90;;;;;;5055586;28;20041;-78
2023/12/27 01:42:16;;;;;;;100.28;60.40;;;4.40;99.90;;;;;;5050902;28;20048;-76
2023/12/27 01:44:45;;;;;;;103.55;62.10;;;4.30;99.90;;;;;;5049484;28;20052;-79
2023/12/27 01:47:14;;;;;;;104.72;65.70;;;4.40;99.90;;;;;;5026441;28;20040;-76
2023/12/27 01:49:41;;;;;;;86.40;50.22;;;4.30;52.10;;;;;;5054209;28;20531;-76
2023/12/27 01:52:11;;;;;;;93.88;55.35;;;4.20;94.30;;;;;;5055675;28;20049;-76
2023/12/27 01:54:39;;;;;;;102.20;58.40;;;4.20;99.90;;;;;;5054688;28;20033;-78
2023/12/27 01:57:07;;;;;;;107.07;63.78;;;4.20;99.90;;;;;;5053253;28;20044;-77
2023/12/27 01:59:34;;;;;;;98.63;58.33;;;4.20;99.90;;;;;;5054447;28;20548;-75
2023/12/27 02:02:04;;;;;;;121.90;68.28;;;4.20;99.90;;;;;;5051585;28;20060;-78
2023/12/27 02:04:31;;;;;;;116.38;67.07;;;4.20;99.90;;;;;;5054201;28;20045;-77
2023/12/27 02:06:59;;;;;;;122.32;71.20;;;4.10;99.90;;;;;;5053976;28;20049;-76
2023/12/27 02:09:27;;;;;;;115.57;69.68;;;4.10;99.90;;;;;;5052968;28;20055;-76
2023/12/27 02:11:55;;;;;;;124.50;71.22;;;4.10;99.90;;;;;;5052236;28;20103;-79
2023/12/27 02:14:22;;;;;;;107.15;64.53;;;4.10;99.90;;;;;;5066665;28;20053;-77
2023/12/27 02:16:51;;;;;;;100.47;56.50;;;4.10;99.90;;;;;;5052132;28;20139;-76
2023/12/27 02:19:21;;;;;;;106.88;62.28;;;4.00;99.90;;;;;;5052529;28;20045;-79
2023/12/27 02:21:51;;;;;;;101.18;59.83;;;4.00;99.90;;;;;;5051982;28;20107;-79
2023/12/27 02:24:20;;;;;;;90.88;56.20;;;4.10;99.80;;;;;;5053595;28;20037;-79
2023/12/27 02:26:49;;;;;;;89.50;53.03;;;4.00;12.50;;;;;;5052182;28;20060;-78
2023/12/27 02:29:17;;;;;;;88.72;53.20;;;4.00;99.90;;;;;;5054090;28;20045;-80
2023/12/27 02:31:44;;;;;;;90.13;53.00;;;4.00;99.90;;;;;;5053083;28;20469;-79
2023/12/27 02:34:12;;;;;;;102.85;60.88;;;3.90;41.50;;;;;;5055320;28;20037;-74
2023/12/27 02:36:39;;;;;;;103.57;63.05;;;3.90;99.90;;;;;;5053815;28;20131;-74
2023/12/27 02:39:07;;;;;;;109.30;66.53;;;3.90;68.90;;;;;;5057975;28;20068;-75
2023/12/27 02:41:35;;;;;;;111.57;64.43;;;3.90;78.70;;;;;;5057738;28;20098;-76
2023/12/27 02:44:05;;;;;;;113.43;64.88;;;3.80;93.80;;;;;;5056124;28;20136;-79
2023/12/27 02:46:33;;;;;;;103.38;62.63;;;3.90;99.90;;;;;;5051925;28;20061;-76
2023/12/27 02:49:01;;;;;;;103.57;58.95;;;3.90;99.90;;;;;;5054529;28;20049;-77
2023/12/27 02:51:29;;;;;;;99.60;57.97;;;3.90;81.70;;;;;;5027830;28;20077;-76
2023/12/27 02:53:56;;;;;;;90.38;52.25;;;3.80;51.70;;;;;;5056841;28;20277;-72
2023/12/27 02:56:23;;;;;;;79.55;46.13;;;3.70;99.90;;;;;;5063563;28;20045;-77
2023/12/27 02:58:52;;;;;;;79.05;46.65;;;3.70;99.90;;;;;;5074311;28;20045;-78
2023/12/27 03:01:21;;;;;;;86.28;47.47;;;3.60;99.90;;;;;;5073026;28;20041;-79
2023/12/27 03:03:48;;;;;;;82.28;49.88;;;3.60;99.90;;;;;;5069325;28;20067;-75
2023/12/27 03:06:15;;;;;;;83.40;49.00;;;3.60;99.90;;;;;;5072960;28;20053;-77
2023/12/27 03:08:43;;;;;;;83.25;51.20;;;3.60;99.90;;;;;;5073422;28;20134;-76
2023/12/27 03:11:10;;;;;;;92.95;53.60;;;3.60;99.90;;;;;;5057534;28;20056;-75
2023/12/27 03:13:38;;;;;;;99.28;54.95;;;3.60;99.90;;;;;;5040072;28;20058;-76
2023/12/27 03:16:06;;;;;;;88.85;53.55;;;3.60;99.90;;;;;;5068677;28;20044;-79
2023/12/27 03:18:35;;;;;;;91.15;51.78;;;3.60;99.90;;;;;;5082073;28;20079;-79
2023/12/27 03:21:03;;;;;;;78.75;47.17;;;3.60;99.90;;;;;;5056294;28;20228;-76
2023/12/27 03:23:30;;;;;;;83.85;48.25;;;3.60;99.90;;;;;;5049848;28;20111;-76
2023/12/27 03:25:58;;;;;;;85.85;49.45;;;3.60;99.90;;;;;;5050811;28;20110;-78
2023/12/27 03:28:29;;;;;;;85.15;48.83;;;3.50;99.90;;;;;;5051202;28;20106;-74
2023/12/27 03:30:57;;;;;;;91.50;52.70;;;3.50;99.90;;;;;;5053939;28;20116;-76
2023/12/27 03:33:25;;;;;;;92.50;55.85;;;3.40;99.90;;;;;;5053625;28;20051;-78
2023/12/27 03:35:53;;;;;;;100.25;59.35;;;3.50;99.90;;;;;;5052793;28;20041;-79
2023/12/27 03:38:21;;;;;;;97.13;57.33;;;3.40;99.90;;;;;;5017346;28;20087;-76
2023/12/27 03:40:48;;;;;;;102.53;60.55;;;3.30;99.90;;;;;;5051684;28;20064;-78
2023/12/27 03:43:16;;;;;;;97.28;57.80;;;3.40;99.90;;;;;;5052171;28;20043;-76
2023/12/27 03:45:45;;;;;;;96.78;59.33;;;3.40;99.90;;;;;;5052239;28;20504;-78
2023/12/27 03:48:13;;;;;;;92.25;53.92;;;3.40;99.90;;;;;;5052319;28;20617;-76
2023/12/27 03:50:41;;;;;;;86.15;50.63;;;3.50;99.90;;;;;;5050682;28;20041;-78
2023/12/27 03:53:10;;;;;;;82.90;50.25;;;3.40;99.90;;;;;;5049883;28;20049;-75
2023/12/27 03:55:37;;;;;;;89.10;52.03;;;3.40;99.90;;;;;;5024795;28;20072;-80
2023/12/27 03:58:05;;;;;;;85.03;52.33;;;3.40;99.90;;;;;;5050261;28;20053;-79
2023/12/27 04:00:32;;;;;;;81.57;49.83;;;3.40;99.90;;;;;;5049845;28;20228;-79
2023/12/27 04:03:00;;;;;;;74.80;43.33;;;3.30;99.90;;;;;;5016855;28;20048;-78
2023/12/27 04:05:27;;;;;;;87.38;46.88;;;3.30;99.90;;;;;;5056859;28;20033;-78
2023/12/27 04:07:55;;;;;;;83.88;48.92;;;3.40;99.90;;;;;;5058509;28;20120;-75
2023/12/27 04:10:25;;;;;;;85.63;51.03;;;3.30;99.90;;;;;;5050676;28;20126;-76
2023/12/27 04:12:53;;;;;;;81.65;48.85;;;3.30;99.90;;;;;;5073935;28;20041;-75
2023/12/27 04:15:22;;;;;;;94.20;51.42;;;3.20;99.90;;;;;;5052349;28;20033;-74
2023/12/27 04:17:49;;;;;;;96.15;53.08;;;3.10;99.90;;;;;;5029471;28;20049;-73
2023/12/27 04:20:17;;;;;;;100.68;55.50;;;3.20;99.90;;;;;;5055651;28;20047;-76
2023/12/27 04:22:44;;;;;;;94.50;53.92;;;3.20;99.90;;;;;;5057303;28;20506;-76
2023/12/27 04:25:11;;;;;;;85.47;50.83;;;3.20;99.90;;;;;;5050049;28;20072;-75
2023/12/27 04:27:40;;;;;;;93.60;50.28;;;3.30;99.90;;;;;;5054494;28;20041;-77
2023/12/27 04:30:09;;;;;;;85.25;52.40;;;3.30;99.90;;;;;;5054476;28;20045;-78
2023/12/27 04:32:36;;;;;;;95.07;52.47;;;3.20;99.90;;;;;;5067473;28;20060;-75
2023/12/27 04:35:04;;;;;;;82.07;50.20;;;3.20;99.90;;;;;;5050440;28;20045;-76
2023/12/27 04:37:31;;;;;;;81.97;49.35;;;3.20;99.90;;;;;;5050748;28;20041;-74
2023/12/27 04:39:59;;;;;;;74.97;46.05;;;3.20;99.90;;;;;;5065141;28;20049;-77
2023/12/27 04:42:31;;;;;;;83.78;47.25;;;3.20;99.90;;;;;;5049731;28;20584;-77
2023/12/27 04:45:00;;;;;;;82.20;47.25;;;3.30;99.90;;;;;;5049418;28;20041;-78
2023/12/27 04:47:27;;;;;;;73.85;46.28;;;3.20;99.90;;;;;;5048816;28;20817;-78
2023/12/27 04:49:56;;;;;;;86.90;51.55;;;3.20;99.90;;;;;;5050385;28;20069;-75
2023/12/27 04:52:24;;;;;;;79.85;45.10;;;3.20;99.90;;;;;;5053202;28;20041;-77
2023/12/27 04:54:51;;;;;;;70.50;40.22;;;3.10;99.90;;;;;;5052972;28;20041;-74
2023/12/27 04:57:19;;;;;;;73.47;42.13;;;3.10;99.90;;;;;;5071375;28;20048;-76
2023/12/27 04:59:46;;;;;;;71.35;41.97;;;3.10;99.90;;;;;;5071444;28;20040;-77
2023/12/27 05:02:16;;;;;;;81.95;44.80;;;3.00;99.90;;;;;;5065082;28;20048;-73
2023/12/27 05:04:43;;;;;;;68.80;40.20;;;2.90;99.90;;;;;;5064748;28;20062;-76
2023/12/27 05:07:11;;;;;;;81.55;43.53;;;2.90;99.90;;;;;;5066114;28;20041;-79
2023/12/27 05:09:40;;;;;;;86.25;45.17;;;2.90;99.90;;;;;;5069134;28;20179;-78
2023/12/27 05:12:08;;;;;;;86.60;48.67;;;2.90;99.90;;;;;;5054982;28;20047;-76
2023/12/27 05:14:35;;;;;;;86.05;51.30;;;2.90;99.90;;;;;;5069748;28;20041;-75
2023/12/27 05:17:04;;;;;;;81.85;48.60;;;2.90;99.90;;;;;;5068336;28;20041;-77
2023/12/27 05:19:32;;;;;;;87.15;50.30;;;2.90;99.90;;;;;;5062008;28;20045;-76
2023/12/27 05:22:00;;;;;;;88.40;50.38;;;2.90;99.90;;;;;;5058291;28;20527;-76
2023/12/27 05:24:27;;;;;;;85.72;49.22;;;2.90;99.90;;;;;;5060868;28;20045;-77
2023/12/27 05:26:55;;;;;;;83.25;49.65;;;2.80;99.90;;;;;;5062116;28;20032;-76
2023/12/27 05:29:22;;;;;;;83.90;48.97;;;2.80;99.90;;;;;;5061400;28;20075;-76
2023/12/27 05:31:49;;;;;;;88.72;55.00;;;2.80;99.90;;;;;;5061570;28;20132;-78
2023/12/27 05:34:17;;;;;;;90.85;54.85;;;2.90;99.90;;;;;;5059159;28;20052;-76
2023/12/27 05:36:46;;;;;;;94.82;55.92;;;2.90;99.90;;;;;;5061701;28;20068;-78
2023/12/27 05:39:13;;;;;;;95.10;57.60;;;3.00;99.90;;;;;;5065180;28;20041;-78
2023/12/27 05:41:41;;;;;;;98.63;56.35;;;3.10;99.90;;;;;;5052195;28;20143;-76
2023/12/27 05:44:08;;;;;;;96.57;58.20;;;3.10;99.90;;;;;;5051879;28;20047;-76
2023/12/27 05:46:36;;;;;;;92.60;56.17;;;3.30;99.90;;;;;;5025990;28;20053;-75
2023/12/27 05:49:03;;;;;;;99.15;59.30;;;3.30;58.20;;;;;;5054036;28;20120;-75
2023/12/27 05:51:31;;;;;;;102.28;59.38;;;3.30;1.00;;;;;;5061015;28;20055;-76
2023/12/27 05:54:00;;;;;;;105.95;61.65;;;3.30;1.00;;;;;;5063661;28;20224;-76
2023/12/27 05:56:28;;;;;;;107.35;63.15;;;3.30;1.00;;;;;;5064683;28;20092;-75
2023/12/27 05:58:55;;;;;;;106.45;64.20;;;3.30;1.00;;;;;;5055539;28;20067;-76
2023/12/27 06:01:23;;;;;;;110.97;64.60;;;3.30;1.00;;;;;;5065849;28;20049;-76
2023/12/27 06:03:50;;;;;;;118.35;68.35;;;3.40;1.00;;;;;;5066539;28;20037;-76
2023/12/27 06:06:17;;;;;;;135.35;79.15;;;3.30;1.00;;;;;;5060616;28;20044;-77
2023/12/27 06:08:46;;;;;;;133.85;81.15;;;3.40;1.00;;;;;;5064191;28;20041;-76
2023/12/27 06:11:15;;;;;;;127.63;79.65;;;3.40;1.00;;;;;;5078495;28;20120;-75
2023/12/27 06:13:42;;;;;;;114.55;70.15;;;3.50;1.00;;;;;;5058644;28;20139;-76
2023/12/27 06:16:11;;;;;;;107.93;63.95;;;3.60;1.00;;;;;;5057094;28;20037;-75
2023/12/27 06:18:38;;;;;;;103.05;63.92;;;3.70;1.00;;;;;;5057361;28;20095;-76
2023/12/27 06:21:24;;;;;;;121.28;71.88;;;3.70;1.00;;;;;;5061952;28;20520;-79
2023/12/27 06:24:25;;;;;;;126.82;68.72;;;3.80;1.00;;;;;;5058684;28;20045;-79
2023/12/27 06:31:06;;;;;;;111.53;64.30;;;3.90;1.00;;;;;;5059202;28;20037;-81
2023/12/27 06:44:17;;;;;;;118.75;70.22;;;4.20;1.00;;;;;;4993898;28;20037;-78
2023/12/27 06:47:31;;;;;;;;;;;;;;;;;;;;;
2023/12/27 06:50:35;;;;;;;;;;;;;;;;;;;;;
2023/12/27 06:53:10;;;;;;;113.05;65.60;;;4.40;1.00;;;;;;4989031;28;20137;-78
2023/12/27 06:56:09;;;;;;;105.57;59.88;;;4.40;99.90;;;;;;4996324;28;20050;-78
2023/12/27 06:58:39;;;;;;;99.68;55.15;;;4.40;99.90;;;;;;4995729;28;20050;-78
2023/12/27 07:04:09;;;;;;;101.88;61.85;;;4.50;1.00;;;;;;4989346;28;20038;-77
2023/12/27 07:06:44;;;;;;;114.13;68.05;;;4.60;1.00;;;;;;4999668;28;20062;-77
2023/12/27 07:09:11;;;;;;;103.88;61.28;;;4.70;1.00;;;;;;4965551;28;20054;-77
2023/12/27 07:11:39;;;;;;;109.03;58.58;;;4.70;1.00;;;;;;4976052;28;20050;-77
2023/12/27 07:14:07;;;;;;;115.95;68.55;;;4.90;1.00;;;;;;4966416;28;20050;-77
2023/12/27 07:16:36;;;;;;;127.53;71.80;;;5.00;99.90;;;;;;5021832;28;20433;-77
2023/12/27 07:19:04;;;;;;;122.20;65.30;;;5.00;99.90;;;;;;5053305;28;20067;-78
2023/12/27 07:21:31;;;;;;;126.82;68.22;;;5.20;81.00;;;;;;5053508;28;20044;-78
2023/12/27 07:23:59;;;;;;;132.10;73.82;;;5.20;1.00;;;;;;5056135;28;20103;-78
2023/12/27 07:26:30;;;;;;;135.98;79.03;;;5.30;1.00;;;;;;5029138;28;20053;-78
2023/12/27 07:28:57;;;;;;;141.70;84.00;;;5.30;1.00;;;;;;5028272;28;20045;-78
2023/12/27 07:31:31;;;;;;;144.85;85.22;;;5.40;1.00;;;;;;5060676;28;20056;-78
2023/12/27 07:34:00;;;;;;;159.65;92.18;;;5.40;1.00;;;;;;5066216;28;20048;-79
2023/12/27 07:36:28;;;;;;;163.77;94.15;;;5.40;1.00;;;;;;5074456;28;20034;-80
2023/12/27 07:38:55;;;;;;;163.75;95.05;;;5.40;1.00;;;;;;5082301;28;20037;-79
2023/12/27 07:41:23;;;;;;;163.05;95.40;;;5.50;1.00;;;;;;5069328;28;20071;-78
2023/12/27 07:43:51;;;;;;;152.85;90.30;;;5.60;1.00;;;;;;5054405;28;20048;-79
2023/12/27 07:46:19;;;;;;;146.55;84.53;;;5.70;1.00;;;;;;5054009;28;20048;-79
2023/12/27 07:48:46;;;;;;;149.82;90.47;;;5.70;1.00;;;;;;5053416;28;20037;-77
2023/12/27 07:51:15;;;;;;;141.23;81.07;;;5.80;99.90;;;;;;5053357;28;20053;-75
2023/12/27 07:53:52;;;;;;;94.82;53.90;;;5.90;99.90;;;;;;5053493;28;20135;-79
2023/12/27 07:56:19;;;;;;;116.47;66.20;;;6.00;99.90;;;;;;5053499;28;20041;-76
2023/12/27 07:58:48;;;;;;;91.20;56.00;;;6.10;1.00;;;;;;5053351;28;20041;-77
2023/12/27 08:01:18;;;;;;;107.45;63.70;;;6.20;99.90;;;;;;5031435;28;20044;-79
2023/12/27 08:04:09;;;;;;;134.52;80.13;;;6.30;1.00;;;;;;5055423;28;20140;-77
2023/12/27 08:06:41;;;;;;;128.90;75.13;;;6.40;1.00;;;;;;5070096;28;20119;-78
2023/12/27 08:09:11;;;;;;;126.50;74.18;;;6.50;1.00;;;;;;5071551;28;20077;-79
2023/12/27 08:11:41;;;;;;;133.80;79.30;;;6.60;1.00;;;;;;5058325;28;20037;-78
2023/12/27 08:14:10;;;;;;;135.80;82.00;;;6.60;99.90;;;;;;5070878;28;20071;-78
2023/12/27 08:16:40;;;;;;;139.95;80.75;;;6.60;1.00;;;;;;5062161;28;20505;-77
2023/12/27 08:19:08;;;;;;;152.75;91.43;;;6.70;1.00;;;;;;5053566;28;20049;-76
2023/12/27 08:21:36;;;;;;;149.65;91.00;;;6.90;1.00;;;;;;5053843;28;20124;-78
2023/12/27 08:24:07;;;;;;;143.75;87.85;;;7.00;99.90;;;;;;5052624;28;20049;-76
2023/12/27 08:26:38;;;;;;;143.15;84.30;;;7.20;99.90;;;;;;5052404;28;20049;-77
2023/12/27 08:29:08;;;;;;;132.93;80.70;;;7.30;1.00;;;;;;5054780;28;20045;-79
2023/12/27 08:31:37;;;;;;;136.18;81.93;;;7.30;1.00;;;;;;5053844;28;20559;-77
2023/12/27 08:34:04;;;;;;;139.18;83.82;;;7.40;1.00;;;;;;5034166;28;20534;-79
2023/12/27 08:36:32;;;;;;;137.77;81.40;;;7.60;1.00;;;;;;5053566;28;20045;-76
2023/12/27 08:39:00;;;;;;;132.38;80.18;;;7.80;1.00;;;;;;5035823;28;20049;-77
2023/12/27 08:41:32;;;;;;;126.30;77.68;;;7.90;1.00;;;;;;5051643;28;20671;-78
2023/12/27 08:44:00;;;;;;;120.30;77.22;;;7.90;1.00;;;;;;5051811;28;20443;-79
2023/12/27 08:46:36;;;;;;;105.90;70.00;;;7.80;99.90;;;;;;5054180;28;20045;-79
2023/12/27 08:49:20;;;;;;;107.93;69.85;;;8.00;99.90;;;;;;5054776;28;20620;-77
2023/12/27 08:58:45;;;;;;;116.78;72.28;;;8.30;1.00;;;;;;5035947;28;20063;-76
2023/12/27 09:01:17;;;;;;;125.70;76.43;;;8.40;99.90;;;;;;5049640;28;20060;-77
2023/12/27 09:03:45;;;;;;;115.15;74.13;;;8.40;99.90;;;;;;5072659;28;20036;-76
2023/12/27 09:06:13;;;;;;;128.88;76.35;;;8.50;99.90;;;;;;5043838;28;20067;-77
2023/12/27 09:08:41;;;;;;;118.03;72.32;;;8.50;1.00;;;;;;5050825;28;20053;-74
2023/12/27 09:11:10;;;;;;;112.40;71.72;;;8.60;99.90;;;;;;5052783;28;20508;-74
2023/12/27 09:13:39;;;;;;;111.05;70.82;;;8.60;1.00;;;;;;5051000;28;20060;-76
2023/12/27 09:16:08;;;;;;;109.13;70.13;;;8.80;99.90;;;;;;5052085;28;20048;-75
2023/12/27 09:18:35;;;;;;;114.82;72.20;;;8.80;99.90;;;;;;5062731;28;20065;-76
2023/12/27 09:21:03;;;;;;;85.20;54.65;;;8.90;99.90;;;;;;5060504;28;20037;-76
2023/12/27 09:23:30;;;;;;;82.25;50.58;;;9.00;1.00;;;;;;5054488;28;20120;-75
2023/12/27 09:25:58;;;;;;;80.53;51.53;;;9.10;99.90;;;;;;5053934;28;20051;-75
2023/12/27 09:28:27;;;;;;;83.97;50.05;;;9.20;99.90;;;;;;5054569;28;20108;-74
2023/12/27 09:30:56;;;;;;;85.63;50.22;;;9.30;99.90;;;;;;5057332;28;20044;-76
2023/12/27 09:33:24;;;;;;;74.72;48.13;;;9.40;1.00;;;;;;5050820;28;20162;-77
2023/12/27 09:35:52;;;;;;;78.85;48.33;;;9.50;1.00;;;;;;5051764;28;20052;-75
2023/12/27 09:38:22;;;;;;;84.97;56.17;;;9.60;7.50;;;;;;5051303;28;20083;-75
2023/12/27 09:40:49;;;;;;;124.82;83.75;;;9.60;99.90;;;;;;5051085;28;20083;-74
2023/12/27 09:43:18;;;;;;;78.47;52.55;;;9.80;99.90;;;;;;5071363;28;20049;-76
2023/12/27 09:45:47;;;;;;;80.38;53.25;;;9.90;1.00;;;;;;5028909;28;20049;-75
2023/12/27 09:48:18;;;;;;;69.53;44.10;;;10.10;1.00;;;;;;5051635;28;20057;-75
2023/12/27 09:50:47;;;;;;;62.38;39.78;;;10.10;99.90;;;;;;5068314;28;20060;-76
2023/12/27 09:53:17;;;;;;;60.42;35.90;;;10.20;1.00;;;;;;5038976;28;20044;-74
2023/12/27 09:55:47;;;;;;;57.78;35.40;;;10.30;1.00;;;;;;5051026;28;20051;-76
2023/12/27 09:58:20;;;;;;;58.67;34.38;;;10.30;99.90;;;;;;5067895;28;20064;-76
2023/12/27 10:00:49;;;;;;;54.90;31.73;;;10.50;1.00;;;;;;5051624;28;20112;-77
2023/12/27 10:03:26;;;;;;;56.25;34.38;;;10.70;1.00;;;;;;5050381;28;20040;-76
2023/12/27 10:06:05;;;;;;;60.30;37.40;;;10.80;1.10;;;;;;5049962;28;20041;-76
2023/12/27 10:08:34;;;;;;;50.60;34.92;;;10.90;1.00;;;;;;5071231;28;20182;-76
2023/12/27 10:11:02;;;;;;;55.55;32.13;;;11.00;1.00;;;;;;5067432;23;20049;-83
2023/12/27 10:13:31;;;;;;;52.28;33.20;;;11.20;1.00;;;;;;5042914;28;20040;-80
2023/12/27 10:15:58;;;;;;;56.00;33.15;;;11.20;99.90;;;;;;5056517;28;20048;-81
2023/12/27 10:18:31;;;;;;;58.15;33.72;;;11.30;99.90;;;;;;5053445;28;20045;-81
2023/12/27 10:21:00;;;;;;;53.85;32.47;;;11.30;99.90;;;;;;5045036;28;20403;-81
2023/12/27 10:23:28;;;;;;;52.47;29.83;;;11.20;99.90;;;;;;5044951;28;20337;-82
2023/12/27 10:25:55;;;;;;;52.20;32.83;;;11.10;99.90;;;;;;5046456;28;20549;-82
2023/12/27 10:28:26;;;;;;;47.45;31.50;;;11.00;1.00;;;;;;5049937;28;20041;-82
2023/12/27 10:30:54;;;;;;;51.05;31.88;;;10.90;1.00;;;;;;5047443;28;20108;-81
2023/12/27 10:33:22;;;;;;;49.03;32.67;;;11.00;1.00;;;;;;5048993;28;20048;-80
2023/12/27 10:35:52;;;;;;;57.60;35.00;;;10.90;1.00;;;;;;5045181;28;20114;-81
2023/12/27 10:38:19;;;;;;;48.53;31.55;;;10.90;99.90;;;;;;5048337;28;20029;-81
2023/12/27 10:40:47;;;;;;;60.67;34.35;;;11.00;1.00;;;;;;5047772;28;20133;-82
2023/12/27 10:43:15;;;;;;;62.15;35.00;;;11.00;1.00;;;;;;5044212;28;20059;-79
2023/12/27 10:45:42;;;;;;;49.47;32.53;;;11.10;56.70;;;;;;5042213;28;20065;-82
2023/12/27 10:48:14;;;;;;;60.13;35.53;;;11.10;1.00;;;;;;5045913;28;20409;-82
2023/12/27 10:50:43;;;;;;;60.38;35.15;;;11.20;1.00;;;;;;5044498;28;20091;-83
2023/12/27 10:53:19;;;;;;;58.50;36.75;;;11.40;1.00;;;;;;5045495;28;20037;-82
2023/12/27 10:55:51;;;;;;;62.03;35.45;;;11.50;1.00;;;;;;5042642;28;20049;-81
2023/12/27 10:58:22;;;;;;;59.33;36.92;;;11.70;1.00;;;;;;5043647;28;20041;-80
2023/12/27 11:00:49;;;;;;;60.65;39.63;;;11.90;1.00;;;;;;5043233;28;20045;-84
2023/12/27 11:03:19;;;;;;;61.17;36.17;;;12.20;99.90;;;;;;5049034;28;20534;-81
2023/12/27 11:05:48;;;;;;;56.90;35.50;;;12.40;1.00;;;;;;5045529;28;20051;-81
2023/12/27 11:08:20;;;;;;;63.50;38.45;;;12.60;1.00;;;;;;5045337;28;20049;-83
2023/12/27 11:10:49;;;;;;;63.40;40.80;;;12.60;1.00;;;;;;5043389;28;20493;-82
2023/12/27 11:13:18;;;;;;;72.15;46.55;;;12.70;1.00;;;;;;5043511;28;20481;-81
2023/12/27 11:15:47;;;;;;;79.38;51.50;;;12.80;1.00;;;;;;5042056;28;20049;-81
2023/12/27 11:18:14;;;;;;;86.65;56.70;;;13.00;99.90;;;;;;5043983;28;20420;-83
2023/12/27 11:20:42;;;;;;;85.80;55.55;;;13.00;99.90;;;;;;5045335;28;20038;-82
2023/12/27 11:23:11;;;;;;;81.45;53.58;;;12.90;99.90;;;;;;5044459;28;20056;-80
2023/12/27 11:25:40;;;;;;;93.32;55.47;;;12.90;99.90;;;;;;5043714;28;20923;-80
2023/12/27 11:28:09;;;;;;;92.07;57.05;;;12.80;99.90;;;;;;5041258;28;20389;-80
2023/12/27 11:30:38;;;;;;;97.65;58.15;;;12.70;99.90;;;;;;5042523;28;20135;-83
2023/12/27 11:33:06;;;;;;;103.20;64.68;;;12.60;1.00;;;;;;5043369;28;20072;-81
2023/12/27 11:35:35;;;;;;;110.13;68.15;;;12.60;1.00;;;;;;5041469;28;20136;-82
2023/12/27 11:38:15;;;;;;;107.47;70.63;;;12.60;1.00;;;;;;5043162;28;20059;-82
2023/12/27 11:40:45;;;;;;;112.35;71.88;;;12.60;1.00;;;;;;5040658;28;20085;-81
2023/12/27 11:43:20;;;;;;;114.72;72.43;;;12.60;1.00;;;;;;5041703;28;20051;-81
2023/12/27 11:46:01;;;;;;;118.97;75.18;;;12.60;1.00;;;;;;5042366;28;20040;-81
2023/12/27 11:48:33;;;;;;;108.22;73.78;;;12.60;1.00;;;;;;5051071;28;20057;-82
2023/12/27 11:51:02;;;;;;;112.82;73.57;;;12.50;1.00;;;;;;5049742;28;20098;-80
2023/12/27 11:53:31;;;;;;;116.60;71.28;;;12.50;1.00;;;;;;5044799;28;20089;-82
2023/12/27 11:56:03;;;;;;;116.03;72.97;;;12.50;1.00;;;;;;5046103;28;20045;-80
2023/12/27 11:58:32;;;;;;;112.07;73.85;;;12.60;1.00;;;;;;5043575;28;20053;-82
2023/12/27 12:01:27;;;;;;;106.13;71.22;;;12.60;1.00;;;;;;5043345;28;20363;-81
2023/12/27 12:04:15;;;;;;;108.80;68.78;;;12.60;1.00;;;;;;5043594;28;20043;-81
2023/12/27 12:07:34;;;;;;;101.65;64.03;;;12.70;1.00;;;;;;5047469;28;20072;-83
2023/12/27 12:10:02;;;;;;;97.30;62.50;;;12.70;1.00;;;;;;5042063;28;20045;-83
2023/12/27 12:12:32;;;;;;;93.43;61.63;;;12.80;1.00;;;;;;5043608;28;20485;-82
2023/12/27 12:15:01;;;;;;;113.53;73.43;;;12.80;1.00;;;;;;5044100;28;20047;-81
2023/12/27 12:17:30;;;;;;;115.20;75.95;;;12.90;99.90;;;;;;5038972;28;20056;-82
2023/12/27 12:19:58;;;;;;;117.85;77.25;;;12.90;1.00;;;;;;5043274;28;20037;-82
2023/12/27 12:22:27;;;;;;;128.30;82.72;;;12.90;99.90;;;;;;5041911;28;20103;-82
2023/12/27 12:25:07;;;;;;;134.85;92.38;;;13.00;99.90;;;;;;5039242;28;20037;-83
2023/12/27 12:27:38;;;;;;;152.25;100.85;;;12.90;99.90;;;;;;5045840;28;20049;-83
2023/12/27 12:30:07;;;;;;;150.77;96.55;;;13.00;1.00;;;;;;5041517;28;20416;-83
2023/12/27 12:32:40;;;;;;;143.38;92.07;;;12.90;1.00;;;;;;5041256;28;20062;-82
2023/12/27 12:35:09;;;;;;;141.70;91.45;;;13.00;1.00;;;;;;5041485;28;20045;-82
2023/12/27 12:37:38;;;;;;;134.90;84.65;;;13.00;1.00;;;;;;5040799;28;20404;-83
2023/12/27 12:40:08;;;;;;;129.80;86.40;;;13.00;1.00;;;;;;5039691;28;20266;-81
2023/12/27 12:42:37;;;;;;;122.10;81.72;;;13.10;1.00;;;;;;5040263;28;20099;-83
2023/12/27 12:45:06;;;;;;;129.73;87.43;;;13.00;1.00;;;;;;5039182;28;20037;-82
2023/12/27 12:47:35;;;;;;;145.05;94.97;;;13.00;1.00;;;;;;5043307;28;20052;-83
2023/12/27 12:50:03;;;;;;;133.20;87.60;;;13.00;1.00;;;;;;5040487;28;20050;-81
2023/12/27 12:52:30;;;;;;;132.23;88.30;;;13.10;1.00;;;;;;5039834;28;20449;-82
2023/12/27 12:55:01;;;;;;;136.23;91.25;;;13.10;1.00;;;;;;5040851;28;20539;-82
2023/12/27 12:57:29;;;;;;;134.50;88.68;;;13.10;1.00;;;;;;5043776;28;20124;-82
2023/12/27 12:59:58;;;;;;;131.60;86.28;;;13.10;1.00;;;;;;5053405;28;20045;-82
2023/12/27 13:02:27;;;;;;;141.73;89.75;;;13.10;1.00;;;;;;5055511;28;20040;-81
2023/12/27 13:04:58;;;;;;;126.65;85.68;;;13.10;1.00;;;;;;5046560;28;20442;-81
2023/12/27 13:07:27;;;;;;;131.35;83.75;;;13.20;1.00;;;;;;5038949;28;20124;-83
2023/12/27 13:09:57;;;;;;;132.32;88.00;;;13.20;1.00;;;;;;5042240;28;20273;-82
2023/12/27 13:12:25;;;;;;;130.48;87.13;;;13.20;1.00;;;;;;5039994;28;20107;-83